Time;durP1;ratioP1;P1;durP2;ratioP2;P2;SDS_P1;SDS_P2;PMS_P1;PMS_P2;Temp;Humidity;BMP_temperature;BMP_pressure;BME280_temperature;BME280_humidity;BME280_pressure;Samples;Min_cycle;Max_cycle;Signal;HPM_P1;HPM_P2
2023/10/05 00:02:08;;;;;;;;;;;;;;;9.07;100.00;96606.16;10526776;28;2114;-76
2023/10/05 00:07:16;;;;;;;;;;;;;;;8.99;100.00;96613.78;10528553;28;1994;-75
2023/10/05 00:12:20;;;;;;;;;;;;;;;8.89;100.00;96622.47;10522297;28;2040;-75
2023/10/05 00:17:23;;;;;;;;;;;;;;;8.79;100.00;96622.31;10521458;28;2220;-74
2023/10/05 00:22:25;;;;;;;;;;;;;;;8.66;100.00;96616.19;10524181;28;1956;-75
2023/10/05 00:27:29;;;;;;;;;;;;;;;8.59;100.00;96615.53;10530392;28;2290;-75
2023/10/05 00:32:35;;;;;;;;;;;;;;;8.53;100.00;96613.81;10521533;28;3168;-76
2023/10/05 00:37:38;;;;;;;;;;;;;;;8.50;100.00;96619.63;10519499;28;2304;-75
2023/10/05 00:42:40;;;;;;;;;;;;;;;8.50;100.00;96627.66;10523886;28;4654;-75
2023/10/05 00:47:43;;;;;;;;;;;;;;;8.51;100.00;96613.22;10522718;28;2394;-74
2023/10/05 00:52:45;;;;;;;;;;;;;;;8.47;100.00;96601.34;10518934;28;2295;-73
2023/10/05 00:57:48;;;;;;;;;;;;;;;8.42;100.00;96598.59;10519558;28;2050;-75
2023/10/05 01:03:11;;;;;;;;;;;;;;;8.41;100.00;96602.31;10517811;28;2232;-74
2023/10/05 01:08:15;;;;;;;;;;;;;;;8.42;100.00;96595.09;10525544;28;1989;-74
2023/10/05 01:13:18;;;;;;;;;;;;;;;8.34;100.00;96578.31;10515155;28;2664;-74
2023/10/05 01:18:23;;;;;;;;;;;;;;;8.32;100.00;96572.38;10519313;28;1918;-74
2023/10/05 01:23:28;;;;;;;;;;;;;;;8.26;100.00;96557.25;10518147;28;1924;-73
2023/10/05 01:28:30;;;;;;;;;;;;;;;8.24;100.00;96558.56;10521949;28;2168;-74
2023/10/05 01:33:33;;;;;;;;;;;;;;;8.24;100.00;96567.41;10517413;28;2008;-74
2023/10/05 01:38:39;;;;;;;;;;;;;;;8.22;100.00;96568.72;10517900;28;2050;-75
2023/10/05 01:43:42;;;;;;;;;;;;;;;8.18;100.00;96581.75;10522966;28;2182;-75
2023/10/05 01:48:45;;;;;;;;;;;;;;;8.12;100.00;96574.66;10517246;28;1976;-74
2023/10/05 01:53:51;;;;;;;;;;;;;;;8.11;100.00;96581.88;10517861;28;1974;-76
2023/10/05 01:58:54;;;;;;;;;;;;;;;8.13;100.00;96574.41;10519072;28;2608;-75
2023/10/05 02:03:59;;;;;;;;;;;;;;;8.16;100.00;96572.34;10520325;28;1978;-73
2023/10/05 02:09:04;;;;;;;;;;;;;;;8.12;100.00;96567.44;10518028;28;1918;-75
2023/10/05 02:14:07;;;;;;;;;;;;;;;8.10;100.00;96560.72;10523139;28;1973;-75
2023/10/05 02:19:09;;;;;;;;;;;;;;;8.10;100.00;96568.75;10521392;28;2015;-75
2023/10/05 02:24:15;;;;;;;;;;;;;;;8.11;100.00;96560.47;10516478;28;2158;-75
2023/10/05 02:29:19;;;;;;;;;;;;;;;8.10;100.00;96553.50;10521343;28;2009;-74
2023/10/05 02:34:21;;;;;;;;;;;;;;;8.16;100.00;96546.38;10517715;28;1961;-75
2023/10/05 02:39:24;;;;;;;;;;;;;;;8.25;100.00;96544.91;10515306;28;1972;-74
2023/10/05 02:44:30;;;;;;;;;;;;;;;8.32;100.00;96544.78;10517206;28;4575;-74
2023/10/05 02:49:35;;;;;;;;;;;;;;;8.32;100.00;96544.78;10526489;28;2016;-75
2023/10/05 02:54:39;;;;;;;;;;;;;;;8.37;100.00;96547.56;10527542;28;1969;-75
2023/10/05 02:59:41;;;;;;;;;;;;;;;8.40;100.00;96555.16;10524358;28;2015;-75
2023/10/05 03:04:48;;;;;;;;;;;;;;;8.40;100.00;96549.78;10528515;28;2132;-76
2023/10/05 03:09:52;;;;;;;;;;;;;;;8.38;100.00;96541.16;10523242;28;1991;-74
2023/10/05 03:14:56;;;;;;;;;;;;;;;8.35;100.00;96544.31;10527131;28;2237;-76
2023/10/05 03:19:59;;;;;;;;;;;;;;;8.38;100.00;96546.53;10521437;28;1956;-75
2023/10/05 03:25:01;;;;;;;;;;;;;;;8.46;100.00;96551.50;10527822;28;1965;-76
2023/10/05 03:30:06;;;;;;;;;;;;;;;8.57;100.00;96555.97;10524977;28;2591;-75
2023/10/05 03:35:09;;;;;;;;;;;;;;;8.68;100.00;96554.28;10521747;28;6054;-74
2023/10/05 03:40:22;;;;;;;;;;;;;;;8.66;100.00;96551.03;10522292;28;5548;-74
2023/10/05 03:45:26;;;;;;;;;;;;;;;8.59;100.00;96545.84;10527995;28;5442;-74
2023/10/05 03:50:29;;;;;;;;;;;;;;;8.54;100.00;96551.09;10525763;28;1949;-75
2023/10/05 03:55:32;;;;;;;;;;;;;;;8.47;100.00;96541.59;10523278;28;1977;-76
2023/10/05 04:00:35;;;;;;;;;;;;;;;8.42;100.00;96539.63;10527924;28;1950;-74
2023/10/05 04:05:41;;;;;;;;;;;;;;;8.36;100.00;96540.59;10529883;28;1977;-75
2023/10/05 04:10:50;;;;;;;;;;;;;;;8.30;100.00;96541.53;10523874;28;1973;-74
2023/10/05 04:15:52;;;;;;;;;;;;;;;8.30;100.00;96536.16;10525215;28;1982;-73
2023/10/05 04:20:57;;;;;;;;;;;;;;;8.26;100.00;96538.50;10517149;28;2429;-73
2023/10/05 04:26:01;;;;;;;;;;;;;;;8.23;100.00;96536.31;10521768;28;1964;-74
2023/10/05 04:31:09;;;;;;;;;;;;;;;8.17;100.00;96539.13;10523621;28;1972;-77
2023/10/05 04:36:13;;;;;;;;;;;;;;;8.16;100.00;96545.56;10523715;28;1986;-76
2023/10/05 04:41:19;;;;;;;;;;;;;;;8.04;100.00;96543.72;10522451;28;1991;-74
2023/10/05 04:46:21;;;;;;;;;;;;;;;7.97;100.00;96547.59;10523552;28;4999;-75
2023/10/05 04:51:24;;;;;;;;;;;;;;;7.92;100.00;96556.34;10521235;28;1976;-74
2023/10/05 04:56:40;;;;;;;;;;;;;;;7.89;100.00;96553.31;10527919;28;1897;-75
2023/10/05 05:01:56;;;;;;;;;;;;;;;7.94;100.00;96553.41;10513064;28;1960;-74
2023/10/05 05:06:59;;;;;;;;;;;;;;;7.96;100.00;96549.47;10523633;28;2901;-74
2023/10/05 05:12:03;;;;;;;;;;;;;;;7.90;100.00;96553.09;10524322;28;1938;-73
2023/10/05 05:17:06;;;;;;;;;;;;;;;7.82;100.00;96546.25;10518339;28;2327;-75
2023/10/05 05:22:08;;;;;;;;;;;;;;;7.76;100.00;96532.97;10519301;28;1972;-75
2023/10/05 05:27:21;;;;;;;;;;;;;;;7.77;100.00;96538.13;10518809;28;1976;-74
2023/10/05 05:32:24;;;;;;;;;;;;;;;7.81;100.00;96559.84;10525296;28;2027;-76
2023/10/05 05:37:29;;;;;;;;;;;;;;;7.83;100.00;96573.84;10516878;28;2104;-77
2023/10/05 05:42:34;;;;;;;;;;;;;;;7.88;100.00;96563.19;10516057;28;5181;-74
2023/10/05 05:47:36;;;;;;;;;;;;;;;7.94;100.00;96581.00;10519004;28;2024;-75
2023/10/05 05:52:45;;;;;;;;;;;;;;;8.05;100.00;96582.84;10518578;28;2076;-77
2023/10/05 05:57:47;;;;;;;;;;;;;;;8.21;100.00;96594.69;10522176;28;1909;-78
2023/10/05 06:02:50;;;;;;;;;;;;;;;8.32;100.00;96590.31;10517695;28;2001;-76
2023/10/05 06:07:54;;;;;;;;;;;;;;;8.54;100.00;96583.25;10522630;28;1945;-77
2023/10/05 06:12:58;;;;;;;;;;;;;;;8.73;100.00;96583.06;10522290;28;1979;-76
2023/10/05 06:18:01;;;;;;;;;;;;;;;8.85;100.00;96605.25;10519543;28;1972;-77
2023/10/05 06:23:05;;;;;;;;;;;;;;;8.94;100.00;96590.38;10516755;28;3084;-76
2023/10/05 06:28:09;;;;;;;;;;;;;;;9.03;100.00;96593.47;10514755;28;1976;-74
2023/10/05 06:33:11;;;;;;;;;;;;;;;9.09;100.00;96585.25;10521244;28;1949;-73
2023/10/05 06:38:14;;;;;;;;;;;;;;;9.14;100.00;96576.47;10518133;28;1953;-75
2023/10/05 06:43:16;;;;;;;;;;;;;;;9.26;100.00;96562.97;10522787;28;5223;-75
2023/10/05 06:48:19;;;;;;;;;;;;;;;9.60;100.00;96569.91;10518057;28;2053;-74
2023/10/05 06:53:22;;;;;;;;;;;;;;;10.08;100.00;96557.63;10520203;28;2008;-76
2023/10/05 06:58:24;;;;;;;;;;;;;;;10.50;100.00;96559.75;10520174;28;2189;-76
2023/10/05 07:03:28;;;;;;;;;;;;;;;10.52;100.00;96557.59;10523437;28;1452;-75
2023/10/05 07:08:30;;;;;;;;;;;;;;;10.75;100.00;96559.16;10523112;28;2989;-74
2023/10/05 07:13:33;;;;;;;;;;;;;;;10.95;100.00;96545.09;10525370;28;1503;-74
2023/10/05 07:18:36;;;;;;;;;;;;;;;11.14;100.00;96554.38;10524524;28;1629;-74
2023/10/05 07:23:38;;;;;;;;;;;;;;;11.40;100.00;96568.03;10521833;28;1359;-74
2023/10/05 07:28:41;;;;;;;;;;;;;;;11.57;100.00;96560.56;10524074;28;1922;-75
2023/10/05 07:33:44;;;;;;;;;;;;;;;11.82;100.00;96566.13;10526380;28;1676;-73
2023/10/05 07:38:46;;;;;;;;;;;;;;;12.07;100.00;96562.72;10531682;28;1728;-76
2023/10/05 07:43:49;;;;;;;;;;;;;;;12.23;100.00;96569.00;10532466;28;5145;-73
2023/10/05 07:49:09;;;;;;;;;;;;;;;12.54;100.00;96561.00;10529038;28;1914;-74
2023/10/05 07:54:11;;;;;;;;;;;;;;;13.17;100.00;96561.59;10533622;28;2950;-74
2023/10/05 07:59:14;;;;;;;;;;;;;;;13.59;100.00;96555.09;10532580;28;1591;-75
2023/10/05 08:04:17;;;;;;;;;;;;;;;14.41;100.00;96556.41;10534463;28;1478;-74
2023/10/05 08:09:21;;;;;;;;;;;;;;;14.80;100.00;96564.59;10528568;28;1979;-74
2023/10/05 08:14:24;;;;;;;;;;;;;;;15.01;100.00;96549.00;10531275;28;1585;-75
2023/10/05 08:19:29;;;;;;;;;;;;;;;14.84;100.00;96557.53;10527441;28;1636;-74
2023/10/05 08:24:32;;;;;;;;;;;;;;;14.90;100.00;96568.34;10531600;28;1410;-76
2023/10/05 08:29:39;;;;;;;;;;;;;;;14.80;100.00;96577.31;10525017;28;1913;-75
2023/10/05 08:34:44;;;;;;;;;;;;;;;14.49;100.00;96587.50;10528317;28;1638;-76
2023/10/05 08:39:47;;;;;;;;;;;;;;;14.59;100.00;96574.75;10527136;28;3057;-72
2023/10/05 08:44:49;;;;;;;;;;;;;;;14.77;100.00;96569.78;10527679;28;4698;-77
2023/10/05 08:49:54;;;;;;;;;;;;;;;15.05;100.00;96579.84;10528456;28;1976;-74
2023/10/05 08:54:56;;;;;;;;;;;;;;;14.85;100.00;96580.00;10528588;28;1604;-77
2023/10/05 08:59:59;;;;;;;;;;;;;;;14.73;100.00;96584.94;10527440;28;1489;-79
2023/10/05 09:05:07;;;;;;;;;;;;;;;14.75;100.00;96593.59;10529618;28;1894;-76
2023/10/05 09:10:15;;;;;;;;;;;;;;;14.44;100.00;96603.72;10522416;28;1909;-73
2023/10/05 09:15:21;;;;;;;;;;;;;;;14.83;100.00;96596.53;10523634;28;1698;-73
2023/10/05 09:20:24;;;;;;;;;;;;;;;15.24;100.00;96590.81;10521866;28;1845;-75
2023/10/05 09:25:27;;;;;;;;;;;;;;;15.39;100.00;96592.56;10520144;28;1908;-75
2023/10/05 09:30:31;;;;;;;;;;;;;;;15.36;100.00;96577.72;10524134;28;1975;-75
2023/10/05 09:35:34;;;;;;;;;;;;;;;15.78;100.00;96581.69;10525072;28;1882;-74
2023/10/05 09:40:36;;;;;;;;;;;;;;;15.77;100.00;96595.50;10523398;28;2571;-74
2023/10/05 09:45:39;;;;;;;;;;;;;;;15.77;100.00;96598.22;10522568;28;4689;-74
2023/10/05 09:50:42;;;;;;;;;;;;;;;15.62;100.00;96591.88;10525748;28;1991;-75
2023/10/05 09:55:45;;;;;;;;;;;;;;;15.44;100.00;96595.25;10522430;28;2145;-76
2023/10/05 10:00:55;;;;;;;;;;;;;;;15.49;100.00;96597.91;10522505;28;2098;-74
2023/10/05 10:05:59;;;;;;;;;;;;;;;15.77;100.00;96599.03;10520431;28;1846;-73
2023/10/05 10:11:06;;;;;;;;;;;;;;;15.73;100.00;96597.19;10510396;28;1997;-74
2023/10/05 10:16:09;;;;;;;;;;;;;;;16.09;100.00;96590.28;10515500;28;1897;-76
2023/10/05 10:21:12;;;;;;;;;;;;;;;16.23;100.00;96585.00;10519858;28;1889;-73
2023/10/05 10:26:20;;;;;;;;;;;;;;;15.94;100.00;96576.91;10519910;28;1910;-75
2023/10/05 10:31:26;;;;;;;;;;;;;;;16.52;100.00;96571.31;10523616;28;1850;-77
2023/10/05 10:36:29;;;;;;;;;;;;;;;16.41;100.00;96559.81;10516517;28;1903;-75
2023/10/05 10:41:35;;;;;;;;;;;;;;;16.41;100.00;96562.53;10518710;28;2141;-76
2023/10/05 10:46:38;;;;;;;;;;;;;;;16.37;100.00;96557.97;10519795;28;1905;-76
2023/10/05 10:51:41;;;;;;;;;;;;;;;16.42;100.00;96555.19;10524946;28;1894;-74
2023/10/05 10:56:44;;;;;;;;;;;;;;;16.50;100.00;96551.81;10522098;28;3033;-77
2023/10/05 11:01:52;;;;;;;;;;;;;;;16.50;100.00;96551.81;10519545;28;1934;-76
2023/10/05 11:06:56;;;;;;;;;;;;;;;16.69;100.00;96544.47;10528260;28;1979;-75
2023/10/05 11:12:08;;;;;;;;;;;;;;;16.52;100.00;96544.16;10528699;28;1924;-76
2023/10/05 11:17:12;;;;;;;;;;;;;;;17.05;100.00;96537.72;10526554;28;1866;-78
2023/10/05 11:22:23;;;;;;;;;;;;;;;17.28;100.00;96534.88;10527641;28;1962;-75
2023/10/05 11:27:25;;;;;;;;;;;;;;;17.32;100.00;96518.81;10528054;28;1984;-75
2023/10/05 11:32:28;;;;;;;;;;;;;;;17.29;100.00;96520.19;10532432;28;1837;-77
2023/10/05 11:37:58;;;;;;;;;;;;;;;17.40;100.00;96514.59;10521956;28;2052;-76
2023/10/05 11:43:04;;;;;;;;;;;;;;;17.41;100.00;96517.00;10526584;28;4754;-75
2023/10/05 11:48:13;;;;;;;;;;;;;;;17.62;100.00;96532.94;10526105;28;1906;-75
2023/10/05 11:53:20;;;;;;;;;;;;;;;17.94;100.00;96523.94;10525004;28;1937;-74
2023/10/05 11:58:23;;;;;;;;;;;;;;;18.18;100.00;96527.25;10524835;28;2777;-74
2023/10/05 12:03:26;;;;;;;;;;;;;;;18.37;100.00;96514.31;10529472;28;1909;-76
2023/10/05 12:08:29;;;;;;;;;;;;;;;17.76;100.00;96523.75;10527497;28;1977;-76
2023/10/05 12:13:32;;;;;;;;;;;;;;;18.02;100.00;96520.53;10522557;28;2012;-75
2023/10/05 12:18:34;;;;;;;;;;;;;;;18.19;100.00;96525.31;10525239;28;1831;-75
2023/10/05 12:23:37;;;;;;;;;;;;;;;17.91;100.00;96513.66;10525672;28;1938;-76
2023/10/05 12:28:41;;;;;;;;;;;;;;;18.24;100.00;96519.78;10531948;28;2119;-77
2023/10/05 12:33:48;;;;;;;;;;;;;;;18.55;100.00;96522.66;10524461;28;1972;-75
2023/10/05 12:38:51;;;;;;;;;;;;;;;18.76;100.00;96510.22;10522890;28;1880;-76
2023/10/05 12:43:53;;;;;;;;;;;;;;;18.79;100.00;96516.97;10525485;28;4753;-77
2023/10/05 12:48:56;;;;;;;;;;;;;;;19.03;100.00;96512.06;10527261;28;1882;-75
2023/10/05 12:53:59;;;;;;;;;;;;;;;18.66;100.00;96513.16;10527754;28;1913;-78
2023/10/05 12:59:03;;;;;;;;;;;;;;;18.57;100.00;96514.97;10521299;28;2010;-75
2023/10/05 13:04:06;;;;;;;;;;;;;;;18.70;100.00;96508.72;10526565;28;2000;-75
2023/10/05 13:09:11;;;;;;;;;;;;;;;18.77;100.00;96520.03;10522042;28;1949;-75
2023/10/05 13:14:14;;;;;;;;;;;;;;;18.36;100.00;96520.88;10524954;28;1898;-76
2023/10/05 13:19:18;;;;;;;;;;;;;;;18.45;100.00;96522.88;10528567;28;1834;-76
2023/10/05 13:24:21;;;;;;;;;;;;;;;18.96;100.00;96521.75;10522373;28;2012;-78
2023/10/05 13:29:25;;;;;;;;;;;;;;;18.77;100.00;96528.19;10519700;28;2793;-77
2023/10/05 13:34:30;;;;;;;;;;;;;;;18.56;100.00;96532.44;10525794;28;1982;-77
2023/10/05 13:39:34;;;;;;;;;;;;;;;18.76;100.00;96531.19;10526442;28;1919;-78
2023/10/05 13:44:37;;;;;;;;;;;;;;;18.40;100.00;96537.41;10517689;28;4814;-78
2023/10/05 13:49:43;;;;;;;;;;;;;;;18.52;100.00;96539.63;10529213;28;1941;-78
2023/10/05 13:54:46;;;;;;;;;;;;;;;18.00;100.00;96545.28;10526446;28;1756;-77
2023/10/05 13:59:49;;;;;;;;;;;;;;;18.12;100.00;96544.78;10517108;28;1912;-77
2023/10/05 14:04:51;;;;;;;;;;;;;;;18.03;100.00;96552.06;10524869;28;2193;-77
2023/10/05 14:09:56;;;;;;;;;;;;;;;18.01;100.00;96538.75;10523977;28;1914;-76
2023/10/05 14:14:58;;;;;;;;;;;;;;;17.71;100.00;96540.16;10526370;28;2773;-76
2023/10/05 14:20:00;;;;;;;;;;;;;;;17.84;100.00;96546.72;10523567;28;1878;-75
2023/10/05 14:25:07;;;;;;;;;;;;;;;17.67;100.00;96541.81;10525991;28;1870;-76
2023/10/05 14:30:13;;;;;;;;;;;;;;;17.25;100.00;96553.72;10521352;28;2175;-75
2023/10/05 14:35:18;;;;;;;;;;;;;;;16.80;100.00;96552.53;10524887;28;1883;-75
2023/10/05 14:40:21;;;;;;;;;;;;;;;16.73;100.00;96561.00;10519607;28;1976;-76
2023/10/05 14:45:26;;;;;;;;;;;;;;;16.50;100.00;96551.81;10537633;28;4801;-77
2023/10/05 14:50:29;;;;;;;;;;;;;;;16.42;100.00;96566.84;10531571;28;1989;-76
2023/10/05 14:55:31;;;;;;;;;;;;;;;16.33;100.00;96554.19;10526091;28;2573;-77
2023/10/05 15:00:35;;;;;;;;;;;;;;;16.25;100.00;96550.22;10529909;28;1918;-77
2023/10/05 15:05:40;;;;;;;;;;;;;;;16.17;100.00;96542.75;10530675;28;1983;-76
2023/10/05 15:10:43;;;;;;;;;;;;;;;16.04;100.00;96541.56;10527467;28;1958;-77
2023/10/05 15:15:45;;;;;;;;;;;;;;;16.01;100.00;96533.97;10528308;28;1956;-76
2023/10/05 15:20:49;;;;;;;;;;;;;;;16.05;100.00;96551.28;10529524;28;1949;-75
2023/10/05 15:25:53;;;;;;;;;;;;;;;16.09;100.00;96565.88;10534641;28;1946;-76
2023/10/05 15:30:56;;;;;;;;;;;;;;;16.01;100.00;96533.97;10526618;28;1981;-77
2023/10/05 15:35:58;;;;;;;;;;;;;;;15.94;100.00;96544.38;10526328;28;2152;-75
2023/10/05 15:41:03;;;;;;;;;;;;;;;15.99;100.00;96563.28;10529947;28;2501;-76
2023/10/05 15:46:06;;;;;;;;;;;;;;;15.83;100.00;96559.13;10527381;28;4936;-76
2023/10/05 15:51:11;;;;;;;;;;;;;;;15.66;100.00;96560.41;10529602;28;1988;-75
2023/10/05 15:56:13;;;;;;;;;;;;;;;15.64;100.00;96578.03;10524447;28;2189;-77
2023/10/05 16:01:16;;;;;;;;;;;;;;;15.52;100.00;96594.63;10522010;28;1890;-76
2023/10/05 16:06:19;;;;;;;;;;;;;;;15.37;100.00;96589.34;10529678;28;1807;-76
2023/10/05 16:11:21;;;;;;;;;;;;;;;15.27;100.00;96570.47;10524298;28;2003;-76
2023/10/05 16:16:25;;;;;;;;;;;;;;;15.21;100.00;96587.88;10527661;28;1843;-74
2023/10/05 16:21:28;;;;;;;;;;;;;;;15.08;100.00;96598.25;10526891;28;1831;-74
2023/10/05 16:26:31;;;;;;;;;;;;;;;14.91;100.00;96568.06;10525167;28;2585;-76
2023/10/05 16:31:34;;;;;;;;;;;;;;;14.93;100.00;96605.66;10521668;28;1906;-75
2023/10/05 16:36:39;;;;;;;;;;;;;;;14.86;100.00;96584.31;10525882;28;1885;-75
2023/10/05 16:41:42;;;;;;;;;;;;;;;14.68;100.00;96566.84;10523183;28;4724;-75
2023/10/05 16:46:44;;;;;;;;;;;;;;;14.54;100.00;96555.81;10525635;28;1882;-75
2023/10/05 16:51:46;;;;;;;;;;;;;;;14.47;100.00;96549.13;10527348;28;2173;-75
2023/10/05 16:56:49;;;;;;;;;;;;;;;14.47;100.00;96533.69;10521509;28;1921;-74
2023/10/05 17:01:57;;;;;;;;;;;;;;;14.42;100.00;96530.97;10526794;28;1929;-77
2023/10/05 17:06:59;;;;;;;;;;;;;;;14.45;100.00;96500.69;10522888;28;1940;-75
2023/10/05 17:12:02;;;;;;;;;;;;;;;14.43;100.00;96508.25;10526307;28;1917;-76
2023/10/05 17:17:05;;;;;;;;;;;;;;;14.31;100.00;96478.03;10525297;28;1827;-75
2023/10/05 17:22:09;;;;;;;;;;;;;;;14.28;100.00;96502.94;10524107;28;2005;-76
2023/10/05 17:27:13;;;;;;;;;;;;;;;14.22;100.00;96526.50;10518818;28;2447;-76
2023/10/05 17:32:16;;;;;;;;;;;;;;;14.17;100.00;96553.53;10521030;28;1917;-77
2023/10/05 17:37:19;;;;;;;;;;;;;;;14.14;100.00;96561.41;10522060;28;1894;-76
2023/10/05 17:42:21;;;;;;;;;;;;;;;14.02;100.00;96551.72;10522343;28;4671;-76
2023/10/05 17:47:24;;;;;;;;;;;;;;;13.85;100.00;96545.84;10521996;28;1930;-77
2023/10/05 17:52:27;;;;;;;;;;;;;;;13.68;100.00;96548.06;10516517;28;1987;-77
2023/10/05 17:57:30;;;;;;;;;;;;;;;13.58;100.00;96567.00;10521502;28;1890;-77
2023/10/05 18:02:34;;;;;;;;;;;;;;;13.48;100.00;96584.81;10519339;28;2098;-76
2023/10/05 18:07:37;;;;;;;;;;;;;;;13.41;100.00;96599.69;10517346;28;1988;-77
2023/10/05 18:12:40;;;;;;;;;;;;;;;13.35;100.00;96601.56;10518705;28;2845;-74
2023/10/05 18:17:44;;;;;;;;;;;;;;;13.32;100.00;96593.22;10516469;28;1946;-77
2023/10/05 18:22:47;;;;;;;;;;;;;;;13.33;100.00;96617.25;10522829;28;1835;-75
2023/10/05 18:27:49;;;;;;;;;;;;;;;13.36;100.00;96605.06;10524734;28;2010;-75
2023/10/05 18:32:52;;;;;;;;;;;;;;;13.33;100.00;96611.03;10513803;28;2142;-75
2023/10/05 18:37:55;;;;;;;;;;;;;;;13.35;100.00;96609.66;10518203;28;1863;-74
2023/10/05 18:42:58;;;;;;;;;;;;;;;13.29;100.00;96615.34;10522728;28;4686;-76
2023/10/05 18:48:00;;;;;;;;;;;;;;;13.28;100.00;96606.44;10523409;28;1806;-80
2023/10/05 18:53:03;;;;;;;;;;;;;;;13.28;100.00;96600.22;10518942;28;1922;-78
2023/10/05 18:58:06;;;;;;;;;;;;;;;13.10;100.00;96606.94;10518143;28;2704;-75
2023/10/05 19:03:09;;;;;;;;;;;;;;;12.96;100.00;96612.84;10513785;28;1882;-77
2023/10/05 19:08:11;;;;;;;;;;;;;;;12.86;100.00;96606.66;10520531;28;1886;-76
2023/10/05 19:13:14;;;;;;;;;;;;;;;12.78;100.00;96609.88;10518538;28;1972;-77
2023/10/05 19:18:16;;;;;;;;;;;;;;;12.64;100.00;96604.16;10522012;28;1953;-76
2023/10/05 19:23:19;;;;;;;;;;;;;;;12.50;100.00;96611.97;10516235;28;1874;-76
2023/10/05 19:28:22;;;;;;;;;;;;;;;12.42;100.00;96618.69;10523104;28;1886;-77
2023/10/05 19:33:24;;;;;;;;;;;;;;;12.41;100.00;96624.34;10529930;28;1988;-76
2023/10/05 19:38:26;;;;;;;;;;;;;;;12.27;100.00;96642.06;10528178;28;1866;-76
2023/10/05 19:43:29;;;;;;;;;;;;;;;12.24;100.00;96651.50;10524411;28;4739;-76
2023/10/05 19:48:33;;;;;;;;;;;;;;;12.18;100.00;96649.84;10524854;28;1878;-76
2023/10/05 19:53:35;;;;;;;;;;;;;;;12.12;100.00;96651.69;10552823;27;1964;-77
2023/10/05 19:58:38;;;;;;;;;;;;;;;12.00;100.00;96658.38;10519301;28;1886;-76
2023/10/05 20:03:40;;;;;;;;;;;;;;;11.81;100.00;96672.25;10528247;28;2140;-77
2023/10/05 20:08:43;;;;;;;;;;;;;;;11.66;100.00;96682.91;10526090;28;1910;-76
2023/10/05 20:13:45;;;;;;;;;;;;;;;11.45;100.00;96678.41;10519414;28;1874;-76
2023/10/05 20:18:48;;;;;;;;;;;;;;;11.25;100.00;96689.81;10521189;28;1981;-77
2023/10/05 20:23:52;;;;;;;;;;;;;;;11.08;100.00;96684.56;10526498;28;1887;-75
2023/10/05 20:28:54;;;;;;;;;;;;;;;10.93;100.00;96687.88;10523928;28;1979;-76
2023/10/05 20:33:57;;;;;;;;;;;;;;;10.82;100.00;96692.38;10519913;28;1927;-78
2023/10/05 20:38:59;;;;;;;;;;;;;;;10.71;100.00;96696.00;10522027;28;1701;-79
2023/10/05 20:44:02;;;;;;;;;;;;;;;10.68;100.00;96706.44;10518063;28;4669;-78
2023/10/05 20:49:05;;;;;;;;;;;;;;;10.53;100.00;96715.94;10522555;28;1999;-77
2023/10/05 20:54:08;;;;;;;;;;;;;;;10.53;100.00;96712.44;10527106;28;1835;-77
2023/10/05 20:59:12;;;;;;;;;;;;;;;10.38;100.00;96709.59;10520434;28;2887;-74
2023/10/05 21:04:14;;;;;;;;;;;;;;;10.29;100.00;96709.19;10524487;28;1670;-75
2023/10/05 21:09:17;;;;;;;;;;;;;;;10.42;100.00;96714.19;10519920;28;1914;-72
2023/10/05 21:14:19;;;;;;;;;;;;;;;10.36;100.00;96706.31;10519502;28;1945;-74
2023/10/05 21:19:21;;;;;;;;;;;;;;;10.26;100.00;96701.63;10519198;28;3390;-75
2023/10/05 21:24:24;;;;;;;;;;;;;;;10.16;100.00;96704.94;10523099;28;2029;-75
2023/10/05 21:29:27;;;;;;;;;;;;;;;10.08;100.00;96702.69;10520271;28;1918;-74
2023/10/05 21:34:30;;;;;;;;;;;;;;;9.93;100.00;96711.34;10519463;28;1955;-78
2023/10/05 21:39:33;;;;;;;;;;;;;;;9.82;100.00;96708.75;10519851;28;1904;-77
2023/10/05 21:44:35;;;;;;;;;;;;;;;9.73;100.00;96706.50;10522855;28;1910;-74
2023/10/05 21:49:38;;;;;;;;;;;;;;;9.67;100.00;96712.84;10518781;28;1910;-75
2023/10/05 21:54:40;;;;;;;;;;;;;;;9.65;100.00;96708.75;10523969;28;2125;-77
2023/10/05 21:59:43;;;;;;;;;;;;;;;9.61;100.00;96719.19;10514579;28;1948;-74
2023/10/05 22:04:45;;;;;;;;;;;;;;;9.54;100.00;96718.50;10522823;28;1870;-75
2023/10/05 22:09:48;;;;;;;;;;;;;;;9.49;100.00;96715.78;10525074;28;1913;-74
2023/10/05 22:14:50;;;;;;;;;;;;;;;9.50;100.00;96722.75;10521122;28;2698;-75
2023/10/05 22:19:52;;;;;;;;;;;;;;;9.45;100.00;96717.31;10519838;28;1901;-77
2023/10/05 22:24:55;;;;;;;;;;;;;;;9.43;100.00;96708.69;10523973;28;1834;-75
2023/10/05 22:29:58;;;;;;;;;;;;;;;9.26;100.00;96716.72;10523839;28;1990;-74
2023/10/05 22:35:01;;;;;;;;;;;;;;;9.26;100.00;96715.91;10525609;28;1815;-75
2023/10/05 22:40:03;;;;;;;;;;;;;;;9.24;100.00;96709.97;10518741;28;2302;-76
2023/10/05 22:45:06;;;;;;;;;;;;;;;9.19;100.00;96714.19;10520871;28;4649;-75
2023/10/05 22:50:09;;;;;;;;;;;;;;;9.11;100.00;96721.81;10519384;28;1988;-76
2023/10/05 22:55:12;;;;;;;;;;;;;;;9.07;100.00;96720.66;10518922;28;1887;-75
2023/10/05 23:00:14;;;;;;;;;;;;;;;8.99;100.00;96727.22;10511440;28;2549;-75
2023/10/05 23:05:17;;;;;;;;;;;;;;;8.92;100.00;96721.19;10525851;28;2090;-74
2023/10/05 23:10:20;;;;;;;;;;;;;;;8.90;100.00;96712.56;10526100;28;1933;-75
2023/10/05 23:15:22;;;;;;;;;;;;;;;8.85;100.00;96716.00;10527086;28;2054;-75
2023/10/05 23:20:25;;;;;;;;;;;;;;;8.85;100.00;96742.00;10520336;28;2075;-75
2023/10/05 23:25:28;;;;;;;;;;;;;;;8.80;100.00;96744.56;10523219;28;2157;-75
2023/10/05 23:30:30;;;;;;;;;;;;;;;8.77;100.00;96745.84;10521021;28;1910;-76
2023/10/05 23:35:33;;;;;;;;;;;;;;;8.72;100.00;96742.25;10520533;28;1915;-74
2023/10/05 23:40:36;;;;;;;;;;;;;;;8.68;100.00;96747.28;10526958;28;1874;-75
2023/10/05 23:45:41;;;;;;;;;;;;;;;8.60;100.00;96750.34;10525175;28;4709;-75
2023/10/05 23:50:43;;;;;;;;;;;;;;;8.56;100.00;96741.94;10526546;28;1918;-75
2023/10/05 23:55:46;;;;;;;;;;;;;;;8.54;100.00;96746.72;10524608;28;2232;-76
